メインページ
METAR-TAF:

METAR-TAF

空港 :

ブダペスト, ハンガリー

リスト・フェレンツ国際空港

緯度: 47-26N, 経度: 019-16E, 海抜: 151m

現時点の気象観測

当レポートは25分前の06:00(UTC)に作成
の風 7kt
気温 1°C
湿度 100%
気圧 1006 hPa
視程: 1500m
高度200ftの曇り

METAR: LHBP 140600Z 17007KT 1500 BR OVC002 01/01 Q1006 BECMG 3000 BR

時間: 07:25 (06:25 UTC)

予報

当レポートは1時間10分前の05:15(UTC)に作成
予報は14日の 06時(UTC)から 15日の 06時(UTC)まで有効
南/南東の風 7kt
視程: 1500m
高度500ftの千切れ雲あり
14日の 06時(UTC)から 14日の 08時(UTC)まで一時的に
視程: 0600m
高度200ftの曇り
霧, 小霧雨
14日の 08時(UTC)から 14日の 10時(UTC)まで徐々に
の風 10kt
視程: 5000m
高度1000ftの千切れ雲あり
14日の 10時(UTC)から 14日の 12時(UTC)まで徐々に
西/南西の風 8kt
視程10km以上
高度4000ftの千切れ雲あり
14日の 12時(UTC)から 14日の 17時(UTC)まで一時的に
西/南西の風 12kt、最大22ktの突風を伴う
高度2000ftの雲は散在している, 塔状積雲.
高度4000ftの千切れ雲あり
にわか雨
14日の 17時(UTC)から 14日の 19時(UTC)まで徐々に
変向風 3kt
視程10km以上
1,500メートル以下は雲なし、積乱雲なし
15日の 02時(UTC)から 15日の 06時(UTC)まで一時的に
南/南東の風 13kt
高度1500ftの雲は散在している, 塔状積雲.
にわか雨

TAF: LHBP 140515Z 1406/1506 15007KT 1500 BR BKN005 TEMPO 1406/1408 0600 FG -DZ OVC002 BECMG 1408/1410 17010KT 5000 BR BKN010 BECMG 1410/1412 24008KT 9999 NSW BKN040 TEMPO 1412/1417 24012G22KT SHRA SCT020TCU BKN040 BECMG 1417/1419 VRB03KT CAVOK TEMPO 1502/1506 16013KT SHRA SCT015TCU

4,000以上の空港の気象観測と天気予報(METAR報とTAF報)

利用可能な観測所は地図上に黄色い丸と赤い丸で示す。

丸の上にカーソルを重ねると観測所名を参照できる。

次にクリックすると気象観測と天気予報を参照できる。

マップの切り替え:黒色「×」印の緑ボタンをクリックして拡大、「-」印の緑ボタンをクリックして縮小、緑色の三角印をクリックして隣りの地図に切り替え


METAR-TAF: